Teller, Alaska
Current Conditions -  °F | °C
As of 8:58 PM on Tuesday 25 Nov 2014 (Local Time) from PATE Reporting Station
Clear Clear  
Wind Chill: -10°   Ceiling: Unl
Heat Index:   Visibility: 10mi
Dew Point:   Wind: 16mph
Humidity: 83%   Direction: 130°SE
Pressure: 30.22"   Gusts: NA
Location:  65.26°N, 166.36°W
Report Text: PATE 260558Z AUTO 13014KT 10SM CLR M13/M16 A3022 RMK AO2 SLP246 T11331156 11122 21150 50001 FZRANO
Loading
Personal Weather Stations






























Interactive Weather Map New forecast layout! Learn more

10-Day Weather Forecast

Advertisements
Track Severe Weather on mobile